Flight Track Log - Related Links

Times and Time Zones

All times are in EDT time to prevent confusion due to time zone crossing. See the ASQ5745 flight status page for this flight to view local times or setup timezone preferences in your user account.

Time Position Orientation Groundspeed Altitude Reporting Facility
EDT Latitude Longitude Course Direction KTS MPH feet Rate Location/Type
Tue 08:40:27 AM 38.9500 -77.5000 North 176 203 1,400  Level Potomac TRACON
Tue 08:42:46 AM 39.0739 -77.6022 327° Northwest 244 281 6,400 2,130 Climbing Washington Center
Tue 08:43:00 AM 39.3010 -77.4500 North  Level FlightAware Approximate
Tue 08:43:47 AM 39.1383 -77.6014 North 244 281 8,500  Level Washington Center
Tue 08:44:00 AM 39.3929 -77.4500 North  Level FlightAware Approximate
Tue 08:44:47 AM 39.2322 -77.5986 North 278 320 10,700  Level Washington Center
Tue 08:45:00 AM 39.4848 -77.4500 North  Level FlightAware Approximate
Tue 08:45:48 AM 39.3203 -77.5714 13° North 300 345 12,000  Level Washington Center
Tue 08:46:48 AM 39.3878 -77.5117 34° Northeast 319 367 13,300 1,678 Climbing Washington Center
Tue 08:47:46 AM 39.4128 -77.3939 75° East 300 345 15,300 1,718 Climbing Washington Center
Tue 08:50:14 AM 39.6447 -77.4522 349° North 319 367 19,200 1,435 Climbing New York Center
Tue 08:51:15 AM 39.7447 -77.4536 359° North 333 383 20,300 992 Climbing New York Center
Tue 08:52:15 AM 39.8461 -77.4336 North 359 413 21,200 950 Climbing New York Center
Tue 08:53:15 AM 39.9453 -77.3781 23° Northeast 365 420 22,200 942 Climbing New York Center
Tue 08:54:16 AM 40.0464 -77.3197 24° Northeast 377 434 23,100 787 Climbing New York Center
Tue 08:55:17 AM 40.1300 -77.2789 20° North 388 447 23,800 857 Climbing New York Center
Tue 08:56:15 AM 40.2397 -77.2183 23° Northeast 388 447 24,800 610 Climbing New York Center
Tue 08:57:15 AM 40.3428 -77.1597 23° Northeast 388 447 25,000 101 Climbing New York Center
Tue 08:58:14 AM 40.4522 -77.1017 22° Northeast 398 458 25,000  Level New York Center
Tue 08:59:15 AM 40.5617 -77.0436 22° Northeast 412 474 25,000  Level New York Center
Tue 09:00:16 AM 40.6733 -76.9825 23° Northeast 412 474 25,000  Level New York Center
Tue 09:01:16 AM 40.7828 -76.9211 23° Northeast 422 486 25,000  Level New York Center
Tue 09:02:17 AM 40.8922 -76.8597 23° Northeast 422 486 25,000  Level New York Center
Tue 09:03:14 AM 41.0017 -76.7981 23° Northeast 422 486 25,000  Level New York Center
Tue 09:04:15 AM 41.1133 -76.7361 23° Northeast 422 486 25,000  Level New York Center
Tue 09:05:17 AM 41.2247 -76.6744 23° Northeast 422 486 25,000  Level New York Center
Tue 09:06:16 AM 41.3361 -76.6122 23° Northeast 422 486 25,000  Level New York Center
Tue 09:07:16 AM 41.4494 -76.5500 22° Northeast 427 491 25,000  Level New York Center
Tue 09:08:14 AM 41.5589 -76.4847 24° Northeast 427 491 25,000  Level New York Center
Tue 09:09:16 AM 41.6681 -76.4217 23° Northeast 427 491 25,000  Level New York Center
Tue 09:10:15 AM 41.7817 -76.3564 23° Northeast 422 486 25,000 -306 Level New York Center
Tue 09:11:53 AM 41.9483 -76.2592 23° Northeast 429 494 24,200 -380 Descending Boston Center
Tue 09:12:53 AM 42.0567 -76.1958 23° Northeast 424 488 24,000 -100 Descending Boston Center
Tue 09:13:53 AM 42.1569 -76.1261 27° Northeast 414 476 24,000  Level Boston Center
Tue 09:14:53 AM 42.2022 -76.0167 61° Northeast 389 448 24,000  Level Boston Center
Tue 09:15:53 AM 42.2594 -75.8486 65° Northeast 397 457 24,000  Level Boston Center
Tue 09:16:53 AM 42.2994 -75.6936 71° East 397 457 24,000  Level Boston Center
Tue 09:17:53 AM 42.3347 -75.5522 71° East 397 457 24,000 -50 Level Boston Center
Tue 09:18:53 AM 42.3681 -75.4022 73° East 397 457 23,900 -1,100 Descending Boston Center
Tue 09:19:53 AM 42.4075 -75.2464 71° East 408 470 21,800 -2,150 Descending Boston Center
Tue 09:20:53 AM 42.4467 -75.0822 72° East 429 494 19,600 -2,200 Descending Boston Center
Tue 09:21:53 AM 42.4858 -74.9233 71° East 444 511 17,400 -2,200 Descending Boston Center
Tue 09:22:53 AM 42.5244 -74.7672 71° East 439 505 15,200 -2,289 Descending Boston Center
Tue 09:23:09 AM 42.5336 -74.7308 71° East 437 503 14,500 -2,200 Descending Boston Center
Tue 09:23:53 AM 42.5567 -74.6217 74° East 433 498 13,000 -2,149 Descending Boston Center
Tue 09:24:16 AM 42.5744 -74.5603 69° East 434 499 12,100 -2,000 Descending Boston Center
Tue 09:24:53 AM 42.5928 -74.4764 73° East 428 493 11,000 -1,400 Descending Boston Center
Tue 09:25:16 AM 42.6186 -74.4236 56° Northeast 405 466 10,700 -700 Descending Boston Center
Tue 09:25:53 AM 42.6528 -74.3683 50° Northeast 381 438 10,300 -885 Descending Boston Center
Tue 09:26:17 AM 42.6764 -74.3294 50° Northeast 327 376 9,800 -1,600 Descending Boston Center
Tue 09:26:53 AM 42.7108 -74.2739 50° Northeast 346 398 8,700 -1,970 Descending Boston Center
Tue 09:27:24 AM 42.7406 -74.2267 49° Northeast 282 325 7,600 -1,800 Descending Boston Center
Tue 09:27:53 AM 42.7578 -74.1961 52° Northeast 303 349 6,900 -1,667 Descending Boston Center
Tue 09:28:18 AM 42.7814 -74.1572 50° Northeast 287 330 6,100 -1,800 Descending Boston Center
Tue 09:28:53 AM 42.8133 -74.1100 47° Northeast 295 339 5,100 -1,082 Descending Boston Center
Tue 09:29:19 AM 42.8325 -74.0764 52° Northeast 283 326 5,000 -100 Descending Boston Center
Tue 09:29:53 AM 42.8625 -74.0264 51° Northeast 289 333 5,000 -492 Level Boston Center
Tue 09:30:20 AM 42.8861 -73.9789 56° Northeast 279 321 4,500 -1,000 Descending Boston Center
Tue 09:30:53 AM 42.9094 -73.9425 49° Northeast 288 331 4,000 -455 Descending Boston Center
Tue 09:31:26 AM 42.9414 -73.8894 51° Northeast 281 323 4,000  Level Boston Center
Tue 09:31:53 AM 42.9461 -73.8469 81° East 282 325 4,000  Level Boston Center
Tue 09:32:27 AM 42.9111 -73.8150 146° Southeast 343 395 4,000  Level Boston Center

Login

Don't have an account? Register now (free) for customized features, flight alerts, and more!